Time;durP1;ratioP1;P1;durP2;ratioP2;P2;SDS_P1;SDS_P2;PMS_P1;PMS_P2;Temp;Humidity;BMP_temperature;BMP_pressure;BME280_temperature;BME280_humidity;BME280_pressure;Samples;Min_cycle;Max_cycle;Signal;HPM_P1;HPM_P2
2023/08/21 00:01:10;;;;;;;7.45;4.05;;;26.50;99.90;;;;;;7390025;19;20161;-75
2023/08/21 00:03:36;;;;;;;5.72;3.83;;;26.60;99.90;;;;;;7391241;19;20665;-75
2023/08/21 00:06:01;;;;;;;5.32;3.45;;;26.50;99.90;;;;;;7390987;19;20172;-76
2023/08/21 00:08:27;;;;;;;5.13;4.07;;;26.50;99.90;;;;;;7389013;19;20742;-75
2023/08/21 00:10:53;;;;;;;5.07;3.70;;;26.50;99.90;;;;;;7392429;19;20122;-74
2023/08/21 00:13:19;;;;;;;5.05;3.85;;;26.50;99.90;;;;;;7393486;19;20150;-74
2023/08/21 00:15:44;;;;;;;4.53;4.00;;;26.60;99.90;;;;;;7389234;19;20142;-74
2023/08/21 00:18:10;;;;;;;4.72;3.58;;;26.80;99.90;;;;;;7392179;19;20521;-75
2023/08/21 00:20:36;;;;;;;4.90;4.13;;;26.70;99.90;;;;;;7388903;19;20130;-75
2023/08/21 00:23:02;;;;;;;5.78;3.55;;;26.60;99.90;;;;;;7390896;19;20148;-74
2023/08/21 00:25:28;;;;;;;4.60;4.10;;;26.50;99.90;;;;;;7389270;19;20139;-74
2023/08/21 00:27:53;;;;;;;5.57;3.97;;;26.40;99.90;;;;;;7392373;19;20225;-74
2023/08/21 00:30:19;;;;;;;4.60;3.70;;;26.40;99.90;;;;;;7388543;19;20441;-75
2023/08/21 00:32:45;;;;;;;4.70;4.13;;;26.30;99.90;;;;;;7389927;19;20129;-76
2023/08/21 00:35:10;;;;;;;4.65;4.13;;;26.30;99.90;;;;;;7391150;19;20157;-74
2023/08/21 00:37:36;;;;;;;4.43;3.78;;;26.30;99.90;;;;;;7391659;19;20250;-75
2023/08/21 00:40:03;;;;;;;6.82;3.95;;;26.30;99.90;;;;;;7391485;19;20138;-75
2023/08/21 00:42:28;;;;;;;5.57;4.07;;;26.50;99.90;;;;;;7389585;19;20139;-75
2023/08/21 00:44:54;;;;;;;5.43;4.10;;;26.60;99.90;;;;;;7389996;19;20475;-75
2023/08/21 00:47:20;;;;;;;4.30;3.90;;;26.30;99.90;;;;;;7391366;19;20892;-75
2023/08/21 00:49:45;;;;;;;6.40;5.20;;;26.10;99.90;;;;;;7388751;19;20134;-74
2023/08/21 00:52:14;;;;;;;6.47;3.70;;;26.00;99.90;;;;;;7389779;19;20130;-76
2023/08/21 00:54:40;;;;;;;4.25;3.40;;;25.90;99.90;;;;;;7388558;19;20147;-75
2023/08/21 00:57:06;;;;;;;5.05;4.03;;;25.90;99.90;;;;;;7390015;19;20595;-76
2023/08/21 00:59:33;;;;;;;4.55;3.65;;;25.80;99.90;;;;;;7388474;19;20470;-76
2023/08/21 01:01:59;;;;;;;4.10;3.58;;;25.80;99.90;;;;;;7387426;19;20151;-75
2023/08/21 01:04:25;;;;;;;6.03;4.05;;;25.70;99.90;;;;;;7386828;19;20529;-74
2023/08/21 01:06:50;;;;;;;7.65;4.22;;;25.70;99.90;;;;;;7387518;19;20200;-75
2023/08/21 01:09:29;;;;;;;5.88;4.00;;;25.70;99.90;;;;;;7387984;19;20521;-74
2023/08/21 01:12:15;;;;;;;4.55;3.58;;;25.70;99.90;;;;;;7391117;19;20134;-75
2023/08/21 01:15:00;;;;;;;5.80;4.07;;;25.70;99.90;;;;;;7389624;19;20150;-75
2023/08/21 01:17:28;;;;;;;6.25;4.00;;;25.60;99.90;;;;;;7388841;19;20134;-74
2023/08/21 01:19:55;;;;;;;4.93;4.25;;;25.40;99.90;;;;;;7385805;19;20547;-76
2023/08/21 01:22:25;;;;;;;5.03;4.47;;;25.40;99.90;;;;;;7391090;19;20792;-75
2023/08/21 01:24:50;;;;;;;5.50;3.88;;;25.50;99.90;;;;;;7389352;19;20207;-76
2023/08/21 01:27:16;;;;;;;5.07;4.03;;;25.50;99.90;;;;;;7391074;19;20138;-75
2023/08/21 01:29:42;;;;;;;6.30;4.50;;;25.50;99.90;;;;;;7388928;19;20135;-75
2023/08/21 01:32:20;;;;;;;4.82;4.07;;;25.80;99.90;;;;;;7391655;19;20425;-75
2023/08/21 01:34:49;;;;;;;7.80;4.32;;;25.90;99.90;;;;;;7388365;19;20175;-74
2023/08/21 01:37:16;;;;;;;7.43;4.18;;;25.60;99.90;;;;;;7387713;19;20763;-75
2023/08/21 01:39:42;;;;;;;6.40;3.55;;;25.60;99.90;;;;;;7384643;19;20491;-75
2023/08/21 01:42:08;;;;;;;4.60;3.85;;;25.60;99.90;;;;;;7388071;19;20153;-75
2023/08/21 01:44:33;;;;;;;6.82;4.38;;;25.50;99.90;;;;;;7388768;19;20131;-75
2023/08/21 01:46:59;;;;;;;5.60;4.03;;;25.30;99.90;;;;;;7390503;19;20135;-75
2023/08/21 01:49:25;;;;;;;4.32;3.88;;;25.30;99.90;;;;;;7388858;19;20146;-75
2023/08/21 01:51:51;;;;;;;6.47;4.20;;;25.30;99.90;;;;;;7387388;19;20199;-74
2023/08/21 01:54:16;;;;;;;5.30;4.05;;;25.30;99.90;;;;;;7385484;19;21746;-74
2023/08/21 01:56:42;;;;;;;5.63;4.32;;;25.30;99.90;;;;;;7387498;19;20149;-75
2023/08/21 01:59:08;;;;;;;5.97;4.00;;;25.40;99.90;;;;;;7386574;19;20495;-76
2023/08/21 02:01:33;;;;;;;4.82;4.13;;;25.60;99.90;;;;;;7387102;19;20207;-75
2023/08/21 02:03:59;;;;;;;6.07;4.13;;;25.50;99.90;;;;;;7386488;19;20151;-75
2023/08/21 02:06:25;;;;;;;5.47;4.00;;;25.40;99.90;;;;;;7389359;19;20141;-74
2023/08/21 02:08:51;;;;;;;6.95;4.53;;;25.70;99.90;;;;;;7386952;19;20138;-74
2023/08/21 02:11:16;;;;;;;6.43;4.68;;;25.80;99.90;;;;;;7389438;19;20154;-75
2023/08/21 02:13:42;;;;;;;4.43;3.95;;;25.90;99.90;;;;;;7389694;19;20141;-76
2023/08/21 02:16:08;;;;;;;5.43;4.13;;;25.90;99.90;;;;;;7387335;19;20157;-76
2023/08/21 02:18:34;;;;;;;5.55;4.80;;;26.00;99.90;;;;;;7385353;19;20615;-74
2023/08/21 02:21:02;;;;;;;6.75;4.57;;;26.00;99.90;;;;;;7391075;19;20241;-75
2023/08/21 02:23:29;;;;;;;5.18;4.57;;;25.90;99.90;;;;;;7386065;19;20177;-75
2023/08/21 02:25:55;;;;;;;5.35;4.60;;;25.90;99.90;;;;;;7388187;19;20142;-75
2023/08/21 02:28:21;;;;;;;4.85;4.35;;;25.70;99.90;;;;;;7388480;19;20169;-75
2023/08/21 02:30:47;;;;;;;4.53;4.10;;;25.40;99.90;;;;;;7386958;19;20202;-76
2023/08/21 02:33:13;;;;;;;6.35;4.30;;;25.50;99.90;;;;;;7388768;19;20169;-76
2023/08/21 02:35:39;;;;;;;6.00;4.70;;;25.60;99.90;;;;;;7388059;19;20135;-75
2023/08/21 02:38:05;;;;;;;5.47;3.72;;;25.70;99.90;;;;;;7388524;19;20491;-74
2023/08/21 02:40:33;;;;;;;6.30;4.55;;;25.80;99.90;;;;;;7373978;19;20177;-75
2023/08/21 02:42:59;;;;;;;4.82;4.20;;;25.70;99.90;;;;;;7389483;19;20607;-75
2023/08/21 02:45:25;;;;;;;6.05;4.15;;;25.50;99.90;;;;;;7386271;19;20174;-75
2023/08/21 02:47:51;;;;;;;4.82;4.32;;;25.50;99.90;;;;;;7388841;19;20265;-76
2023/08/21 02:50:17;;;;;;;4.25;3.83;;;25.50;99.90;;;;;;7388013;19;20150;-75
2023/08/21 02:52:43;;;;;;;7.05;4.70;;;25.50;99.90;;;;;;7386457;19;20131;-75
2023/08/21 02:55:09;;;;;;;7.85;4.40;;;25.70;99.90;;;;;;7386060;19;20490;-75
2023/08/21 02:57:35;;;;;;;6.35;5.00;;;25.70;99.90;;;;;;7386608;19;20146;-75
2023/08/21 03:00:01;;;;;;;5.60;5.07;;;25.70;99.90;;;;;;7382805;19;20139;-75
2023/08/21 03:02:27;;;;;;;5.35;4.75;;;25.70;99.90;;;;;;7386835;19;20145;-75
2023/08/21 03:04:52;;;;;;;5.93;4.55;;;25.70;99.90;;;;;;7383409;19;20166;-75
2023/08/21 03:07:18;;;;;;;7.57;5.30;;;25.70;99.90;;;;;;7386725;19;20595;-76
2023/08/21 03:09:46;;;;;;;7.57;4.65;;;25.60;99.90;;;;;;7384051;19;20135;-76
2023/08/21 03:12:12;;;;;;;7.95;4.97;;;25.40;99.90;;;;;;7386854;19;20149;-75
2023/08/21 03:14:38;;;;;;;7.13;4.90;;;25.40;99.90;;;;;;7386539;19;20134;-75
2023/08/21 03:17:04;;;;;;;4.85;4.40;;;25.20;99.90;;;;;;7385041;19;20170;-76
2023/08/21 03:19:30;;;;;;;4.55;4.13;;;25.00;99.90;;;;;;7382684;19;20147;-75
2023/08/21 03:21:56;;;;;;;6.60;4.60;;;25.00;99.90;;;;;;7385291;19;20138;-75
2023/08/21 03:24:21;;;;;;;5.25;4.75;;;25.20;99.90;;;;;;7384128;19;20135;-74
2023/08/21 03:26:47;;;;;;;6.63;4.75;;;25.30;99.90;;;;;;7384852;19;20130;-75
2023/08/21 03:29:13;;;;;;;8.07;5.50;;;25.30;99.90;;;;;;7383655;19;20147;-75
2023/08/21 03:31:39;;;;;;;6.15;5.55;;;25.30;99.90;;;;;;7387468;19;20123;-75
2023/08/21 03:34:05;;;;;;;5.35;4.50;;;25.30;99.90;;;;;;7385923;19;20138;-75
2023/08/21 03:36:31;;;;;;;6.22;4.90;;;25.20;99.90;;;;;;7385051;19;20134;-75
2023/08/21 03:39:01;;;;;;;7.55;5.20;;;25.20;99.90;;;;;;7384518;19;20436;-75
2023/08/21 03:41:27;;;;;;;6.47;4.95;;;25.00;99.90;;;;;;7387037;19;20226;-75
2023/08/21 03:43:53;;;;;;;7.38;5.10;;;25.00;99.90;;;;;;7393766;19;20150;-76
2023/08/21 03:46:19;;;;;;;5.28;4.68;;;25.00;99.90;;;;;;7393707;19;20130;-76
2023/08/21 03:48:45;;;;;;;7.68;5.82;;;25.00;99.90;;;;;;7392888;19;20141;-75
2023/08/21 03:51:11;;;;;;;6.30;5.03;;;24.90;99.90;;;;;;7389054;19;20142;-75
2023/08/21 03:53:36;;;;;;;5.50;4.53;;;25.00;99.90;;;;;;7392774;19;20209;-75
2023/08/21 03:56:02;;;;;;;5.55;4.60;;;25.00;99.90;;;;;;7390047;19;20575;-74
2023/08/21 03:58:28;;;;;;;8.00;5.38;;;25.10;99.90;;;;;;7390666;19;20135;-75
2023/08/21 04:00:54;;;;;;;8.63;5.18;;;25.30;99.90;;;;;;7393284;19;20214;-75
2023/08/21 04:03:20;;;;;;;8.25;5.05;;;25.30;99.90;;;;;;7390637;19;20218;-75
2023/08/21 04:05:46;;;;;;;7.60;5.07;;;25.30;99.90;;;;;;7393559;19;20138;-75
2023/08/21 04:08:12;;;;;;;7.53;5.40;;;25.30;99.90;;;;;;7389533;19;20148;-75
2023/08/21 04:10:38;;;;;;;6.80;5.32;;;25.30;99.90;;;;;;7392492;19;20655;-75
2023/08/21 04:13:05;;;;;;;6.47;4.88;;;25.30;99.90;;;;;;7392399;19;20135;-74
2023/08/21 04:15:35;;;;;;;6.20;5.43;;;25.40;99.90;;;;;;7390657;19;20159;-75
2023/08/21 04:18:00;;;;;;;5.85;5.10;;;25.40;99.90;;;;;;7391489;19;20135;-75
2023/08/21 04:20:26;;;;;;;6.60;5.25;;;25.40;99.90;;;;;;7390425;19;20165;-75
2023/08/21 04:22:52;;;;;;;6.55;5.00;;;25.20;99.90;;;;;;7389814;19;20173;-75
2023/08/21 04:25:18;;;;;;;5.70;5.20;;;25.20;99.90;;;;;;7390232;19;20133;-75
2023/08/21 04:27:44;;;;;;;7.03;6.00;;;25.10;99.90;;;;;;7389389;19;20146;-75
2023/08/21 04:30:10;;;;;;;8.93;5.45;;;25.20;99.90;;;;;;7392643;19;20127;-75
2023/08/21 04:32:36;;;;;;;6.50;5.10;;;25.10;99.90;;;;;;7391037;19;20135;-74
2023/08/21 04:35:02;;;;;;;7.78;5.68;;;25.10;99.90;;;;;;7394390;19;20131;-74
2023/08/21 04:37:27;;;;;;;7.25;5.20;;;25.10;99.90;;;;;;7390880;19;20496;-74
2023/08/21 04:39:53;;;;;;;6.78;5.35;;;25.00;99.90;;;;;;7390794;19;20591;-75
2023/08/21 04:42:20;;;;;;;10.40;6.15;;;25.00;99.90;;;;;;7392151;19;20142;-75
2023/08/21 04:44:46;;;;;;;8.65;5.22;;;25.00;99.90;;;;;;7393286;19;20135;-75
2023/08/21 04:47:28;;;;;;;6.72;5.55;;;24.90;99.90;;;;;;7391053;19;20287;-75
2023/08/21 04:49:55;;;;;;;6.20;5.18;;;24.90;99.90;;;;;;7389500;19;20159;-75
2023/08/21 04:52:24;;;;;;;5.32;4.82;;;24.80;99.90;;;;;;7389951;19;20198;-76
2023/08/21 04:54:51;;;;;;;5.78;4.95;;;24.80;99.90;;;;;;7390988;19;20134;-74
2023/08/21 04:57:17;;;;;;;6.43;5.10;;;24.80;99.90;;;;;;7389604;19;20142;-75
2023/08/21 04:59:43;;;;;;;6.25;5.13;;;24.70;99.90;;;;;;7389082;19;20139;-76
2023/08/21 05:02:09;;;;;;;8.60;6.60;;;24.60;99.90;;;;;;7389876;19;20152;-74
2023/08/21 05:04:38;;;;;;;6.15;5.55;;;24.60;99.90;;;;;;7391985;19;20163;-75
2023/08/21 05:07:04;;;;;;;6.88;5.00;;;24.80;99.90;;;;;;7392748;19;20155;-75
2023/08/21 05:09:33;;;;;;;7.13;5.15;;;25.00;99.90;;;;;;7393215;19;20154;-76
2023/08/21 05:11:59;;;;;;;7.18;4.85;;;25.10;99.90;;;;;;7392339;19;20322;-76
2023/08/21 05:14:25;;;;;;;9.32;6.05;;;25.10;99.90;;;;;;7391983;19;20226;-75
2023/08/21 05:16:51;;;;;;;7.88;5.80;;;25.10;99.90;;;;;;7388508;19;20166;-76
2023/08/21 05:19:17;;;;;;;7.95;6.43;;;25.10;99.90;;;;;;7388400;19;20167;-75
2023/08/21 05:21:44;;;;;;;9.68;6.05;;;25.10;99.90;;;;;;7391564;19;20594;-75
2023/08/21 05:24:10;;;;;;;8.13;5.82;;;25.10;99.90;;;;;;7391921;19;20138;-75
2023/08/21 05:26:36;;;;;;;7.18;6.03;;;25.10;99.90;;;;;;7390311;19;20500;-74
2023/08/21 05:29:03;;;;;;;8.93;6.18;;;25.10;99.90;;;;;;7389456;19;20150;-74
2023/08/21 05:31:29;;;;;;;7.18;6.03;;;25.10;99.90;;;;;;7389967;19;20144;-75
2023/08/21 05:33:55;;;;;;;8.60;6.07;;;25.00;99.90;;;;;;7390962;19;20155;-75
2023/08/21 05:36:21;;;;;;;10.80;6.38;;;24.90;99.90;;;;;;7392843;19;20162;-76
2023/08/21 05:38:48;;;;;;;8.07;6.18;;;25.10;99.90;;;;;;7388278;19;20164;-77
2023/08/21 05:41:14;;;;;;;6.75;5.60;;;25.10;99.90;;;;;;7392032;19;20138;-78
2023/08/21 05:43:42;;;;;;;8.88;6.22;;;25.00;99.90;;;;;;7391687;19;20135;-75
2023/08/21 05:46:08;;;;;;;7.90;5.50;;;25.10;99.90;;;;;;7391263;19;20227;-76
2023/08/21 05:48:34;;;;;;;8.10;4.70;;;25.20;99.90;;;;;;7390236;19;20135;-76
2023/08/21 05:51:00;;;;;;;8.27;5.22;;;25.30;99.90;;;;;;7388870;19;20137;-76
2023/08/21 05:53:26;;;;;;;6.05;4.97;;;25.30;99.90;;;;;;7387844;19;20126;-74
2023/08/21 05:55:52;;;;;;;7.07;5.40;;;25.30;99.90;;;;;;7386091;19;20597;-75
2023/08/21 05:58:18;;;;;;;8.77;4.80;;;25.30;99.90;;;;;;7386572;19;20471;-75
2023/08/21 06:00:44;;;;;;;6.70;5.22;;;25.30;99.90;;;;;;7388234;19;20127;-76
2023/08/21 06:03:10;;;;;;;6.72;5.47;;;25.10;99.90;;;;;;7385427;19;20145;-75
2023/08/21 06:05:36;;;;;;;6.22;5.13;;;25.20;99.90;;;;;;7385342;19;20146;-75
2023/08/21 06:08:02;;;;;;;7.43;4.82;;;25.30;99.90;;;;;;7392575;19;20262;-75
2023/08/21 06:10:28;;;;;;;7.40;4.82;;;25.30;99.90;;;;;;7388873;19;20139;-75
2023/08/21 06:12:53;;;;;;;7.50;4.82;;;25.30;99.90;;;;;;7391663;19;20141;-75
2023/08/21 06:15:19;;;;;;;5.97;4.80;;;25.40;99.90;;;;;;7389092;19;20632;-76
2023/08/21 06:17:45;;;;;;;6.38;4.88;;;25.50;99.90;;;;;;7391215;19;20138;-74
2023/08/21 06:20:13;;;;;;;5.18;4.38;;;25.50;99.90;;;;;;7386825;19;20154;-75
2023/08/21 06:22:39;;;;;;;5.35;4.38;;;25.50;99.90;;;;;;7390135;19;20141;-75
2023/08/21 06:25:05;;;;;;;5.10;4.60;;;25.60;99.90;;;;;;7392003;19;20137;-76
2023/08/21 06:27:31;;;;;;;7.20;5.10;;;25.50;99.90;;;;;;7388142;19;20138;-76
2023/08/21 06:29:57;;;;;;;7.75;5.45;;;25.60;99.90;;;;;;7388997;19;20457;-75
2023/08/21 06:32:23;;;;;;;5.32;4.43;;;25.60;99.90;;;;;;7388173;19;20151;-74
2023/08/21 06:34:48;;;;;;;6.15;4.93;;;25.60;99.90;;;;;;7391321;19;20134;-75
2023/08/21 06:37:14;;;;;;;6.00;4.93;;;25.70;99.90;;;;;;7390237;19;20145;-75
2023/08/21 06:39:40;;;;;;;6.93;5.00;;;25.80;99.90;;;;;;7386187;19;20499;-75
2023/08/21 06:42:06;;;;;;;5.38;4.35;;;25.90;99.90;;;;;;7390375;19;20205;-76
2023/08/21 06:44:32;;;;;;;9.13;4.47;;;25.90;99.90;;;;;;7390493;19;20200;-75
2023/08/21 06:46:57;;;;;;;5.85;4.38;;;26.10;99.90;;;;;;7389905;19;20142;-76
2023/08/21 06:49:23;;;;;;;6.40;4.68;;;26.10;99.90;;;;;;7389216;19;20190;-75
2023/08/21 06:51:49;;;;;;;5.35;4.50;;;26.20;99.90;;;;;;7389939;19;20159;-75
2023/08/21 06:54:15;;;;;;;8.20;4.32;;;26.30;99.90;;;;;;7385933;19;20202;-74
2023/08/21 06:56:41;;;;;;;7.65;4.78;;;26.40;99.90;;;;;;7390205;19;20155;-75
2023/08/21 06:59:06;;;;;;;6.10;4.90;;;26.40;99.90;;;;;;7386299;19;20150;-75
2023/08/21 07:01:32;;;;;;;6.13;4.82;;;26.70;99.90;;;;;;7387706;19;20565;-75
2023/08/21 07:03:58;;;;;;;9.43;5.63;;;27.00;99.90;;;;;;7388907;19;20158;-75
2023/08/21 07:06:23;;;;;;;7.25;4.88;;;27.80;99.90;;;;;;7387921;19;20131;-75
2023/08/21 07:08:49;;;;;;;5.55;4.78;;;28.50;99.90;;;;;;7389022;19;20131;-75
2023/08/21 07:11:17;;;;;;;8.65;4.07;;;29.00;99.90;;;;;;7388569;19;20143;-75
2023/08/21 07:13:42;;;;;;;4.93;4.28;;;29.40;99.90;;;;;;7389722;19;20169;-76
2023/08/21 07:16:08;;;;;;;9.65;4.72;;;30.10;99.90;;;;;;7390715;19;20210;-76
2023/08/21 07:18:35;;;;;;;6.43;4.95;;;30.80;99.90;;;;;;7393587;19;20145;-75
2023/08/21 07:21:04;;;;;;;7.80;4.88;;;31.30;99.90;;;;;;7393313;19;20165;-76
2023/08/21 07:23:31;;;;;;;7.32;5.13;;;31.50;99.90;;;;;;7393759;19;20652;-75
2023/08/21 07:25:58;;;;;;;6.20;5.60;;;31.70;99.90;;;;;;7392471;19;20150;-74
2023/08/21 07:28:24;;;;;;;6.82;5.30;;;31.70;99.90;;;;;;7393463;19;20146;-75
2023/08/21 07:30:59;;;;;;;9.48;6.15;;;31.70;99.90;;;;;;7392870;19;20157;-74
2023/08/21 07:33:28;;;;;;;8.15;6.13;;;31.80;99.90;;;;;;7393294;19;20154;-74
2023/08/21 07:36:01;;;;;;;6.32;5.50;;;31.40;99.90;;;;;;7393362;19;20229;-74
2023/08/21 07:38:27;;;;;;;8.20;5.70;;;31.20;99.90;;;;;;7393339;19;20134;-75
2023/08/21 07:41:04;;;;;;;8.63;5.78;;;31.10;99.90;;;;;;7394167;19;20139;-74
2023/08/21 07:43:31;;;;;;;6.13;5.10;;;31.70;99.90;;;;;;7392629;19;20592;-75
2023/08/21 07:45:56;;;;;;;10.77;5.07;;;32.10;99.90;;;;;;7392631;19;20213;-75
2023/08/21 07:48:22;;;;;;;9.43;5.40;;;32.00;99.90;;;;;;7394155;19;20559;-75
2023/08/21 07:50:53;;;;;;;5.95;4.93;;;31.70;99.90;;;;;;7392646;19;20206;-74
2023/08/21 07:53:19;;;;;;;6.13;4.93;;;31.80;99.90;;;;;;7394721;19;20138;-75
2023/08/21 07:55:45;;;;;;;6.78;4.93;;;31.80;99.90;;;;;;7393194;19;20157;-75
2023/08/21 07:58:11;;;;;;;7.05;5.20;;;32.00;99.90;;;;;;7392068;19;20484;-74
2023/08/21 08:00:38;;;;;;;7.63;5.70;;;32.10;99.90;;;;;;7392598;19;20131;-74
2023/08/21 08:03:05;;;;;;;5.18;4.65;;;31.70;99.90;;;;;;7393875;19;20139;-75
2023/08/21 08:05:32;;;;;;;6.68;4.72;;;31.40;99.90;;;;;;7393493;19;20163;-74
2023/08/21 08:07:58;;;;;;;7.20;4.78;;;31.50;99.90;;;;;;7396015;19;20147;-75
2023/08/21 08:10:25;;;;;;;7.40;4.88;;;31.40;99.90;;;;;;7393180;19;20598;-74
2023/08/21 08:12:50;;;;;;;6.90;4.75;;;31.30;99.90;;;;;;7393192;19;20150;-75
2023/08/21 08:15:17;;;;;;;5.07;4.32;;;31.40;99.90;;;;;;7392798;19;20489;-74
2023/08/21 08:17:45;;;;;;;6.63;5.25;;;31.80;99.90;;;;;;7392795;19;20599;-75
2023/08/21 08:20:12;;;;;;;7.65;4.82;;;31.60;99.90;;;;;;7391365;19;20157;-74
2023/08/21 08:22:38;;;;;;;6.05;4.70;;;31.30;99.90;;;;;;7391984;19;20205;-74
2023/08/21 08:25:05;;;;;;;8.43;5.60;;;31.00;99.90;;;;;;7392939;19;20598;-74
2023/08/21 08:27:32;;;;;;;10.18;4.70;;;30.90;99.90;;;;;;7391398;19;20131;-74
2023/08/21 08:29:58;;;;;;;5.85;5.10;;;31.00;99.90;;;;;;7391947;19;20141;-74
2023/08/21 08:32:25;;;;;;;7.93;5.00;;;31.00;99.90;;;;;;7392925;19;20148;-74
2023/08/21 08:34:51;;;;;;;6.88;4.88;;;30.90;99.90;;;;;;7391749;19;20134;-74
2023/08/21 08:37:17;;;;;;;6.75;5.50;;;31.00;99.90;;;;;;7390283;19;20530;-75
2023/08/21 08:39:43;;;;;;;8.95;5.20;;;31.00;99.90;;;;;;7388957;19;20131;-75
2023/08/21 08:42:09;;;;;;;7.45;5.72;;;30.90;99.90;;;;;;7388168;19;20126;-75
2023/08/21 08:44:36;;;;;;;8.35;5.53;;;30.80;99.90;;;;;;7390705;19;20135;-75
2023/08/21 08:47:03;;;;;;;6.18;5.22;;;30.90;99.90;;;;;;7391651;19;20150;-74
2023/08/21 08:49:30;;;;;;;7.90;5.43;;;30.90;99.90;;;;;;7390198;19;20150;-74
2023/08/21 08:51:58;;;;;;;8.95;5.82;;;30.80;99.90;;;;;;7393521;19;20487;-74
2023/08/21 08:54:25;;;;;;;5.95;5.35;;;30.80;99.90;;;;;;7390253;19;20135;-75
2023/08/21 08:56:51;;;;;;;6.47;5.10;;;30.90;99.90;;;;;;7392939;19;20444;-74
2023/08/21 08:59:17;;;;;;;8.20;5.65;;;30.90;99.90;;;;;;7387768;19;20592;-74
2023/08/21 09:01:43;;;;;;;7.80;5.05;;;30.80;99.90;;;;;;7389614;19;20138;-74
2023/08/21 09:04:09;;;;;;;7.93;5.07;;;30.70;99.90;;;;;;7390947;19;20142;-74
2023/08/21 09:06:35;;;;;;;6.70;5.53;;;30.50;99.90;;;;;;7390498;19;20138;-73
2023/08/21 09:09:02;;;;;;;5.82;5.22;;;30.40;99.90;;;;;;7390513;19;20142;-73
2023/08/21 09:11:28;;;;;;;6.22;5.40;;;30.40;99.90;;;;;;7390178;19;20198;-75
2023/08/21 09:13:55;;;;;;;17.55;5.93;;;30.30;99.90;;;;;;7391877;19;20138;-74
2023/08/21 09:16:24;;;;;;;8.13;5.40;;;30.40;99.90;;;;;;7392241;19;20137;-73
2023/08/21 09:18:56;;;;;;;4.90;4.38;;;30.60;99.90;;;;;;7389225;19;20155;-74
2023/08/21 09:21:27;;;;;;;8.52;4.90;;;30.90;99.90;;;;;;7392248;19;20153;-74
2023/08/21 09:23:58;;;;;;;7.70;6.65;;;31.20;99.90;;;;;;7390620;19;20475;-74
2023/08/21 09:26:24;;;;;;;5.03;4.35;;;31.20;99.90;;;;;;7391702;19;20149;-74
2023/08/21 09:28:52;;;;;;;9.30;5.35;;;30.90;99.90;;;;;;7390353;19;20206;-74
2023/08/21 09:31:30;;;;;;;5.55;4.30;;;30.80;99.90;;;;;;7389846;19;20255;-74
2023/08/21 09:33:57;;;;;;;4.75;3.97;;;30.50;99.90;;;;;;7391780;19;20603;-74
2023/08/21 09:36:24;;;;;;;8.13;4.95;;;30.40;99.90;;;;;;7389221;19;20145;-74
2023/08/21 09:38:52;;;;;;;5.75;4.60;;;30.50;99.90;;;;;;7387271;19;20587;-75
2023/08/21 09:41:22;;;;;;;8.00;4.47;;;30.70;99.90;;;;;;7389712;19;20145;-74
2023/08/21 09:43:48;;;;;;;13.13;3.88;;;30.90;99.90;;;;;;7389149;19;20453;-75
2023/08/21 09:46:16;;;;;;;5.60;4.35;;;31.10;99.90;;;;;;7389185;19;20139;-76
2023/08/21 09:48:44;;;;;;;6.72;4.20;;;31.20;99.90;;;;;;7391194;19;20138;-76
2023/08/21 09:51:11;;;;;;;5.68;4.13;;;30.90;99.90;;;;;;7387837;19;20154;-74
2023/08/21 09:53:38;;;;;;;5.75;3.92;;;30.80;99.90;;;;;;7388735;19;20139;-76
2023/08/21 09:56:05;;;;;;;3.72;3.33;;;30.70;99.90;;;;;;7392509;19;20131;-74
2023/08/21 09:58:31;;;;;;;5.53;4.05;;;30.60;99.90;;;;;;7391334;19;20610;-74
2023/08/21 10:01:00;;;;;;;6.82;4.80;;;30.50;99.90;;;;;;7393106;19;20139;-74
2023/08/21 10:03:26;;;;;;;9.27;4.20;;;30.50;99.90;;;;;;7388144;19;20143;-74
2023/08/21 10:05:55;;;;;;;7.13;3.83;;;30.60;99.90;;;;;;7388802;19;20514;-74
2023/08/21 10:08:25;;;;;;;6.80;5.25;;;30.80;99.90;;;;;;7387667;19;20230;-74
2023/08/21 10:10:51;;;;;;;7.20;3.90;;;30.90;99.90;;;;;;7388713;19;20122;-75
2023/08/21 10:13:17;;;;;;;6.63;3.50;;;30.80;99.90;;;;;;7386879;19;20194;-76
2023/08/21 10:15:45;;;;;;;6.63;3.47;;;30.70;99.90;;;;;;7391858;19;20130;-76
2023/08/21 10:18:28;;;;;;;5.30;3.72;;;30.80;99.90;;;;;;7387670;19;20130;-74
2023/08/21 10:20:54;;;;;;;6.40;3.90;;;30.80;99.90;;;;;;7386747;19;20178;-74
2023/08/21 10:23:26;;;;;;;6.57;4.50;;;30.80;99.90;;;;;;7391771;19;20134;-74
2023/08/21 10:25:59;;;;;;;4.95;3.22;;;30.80;99.90;;;;;;7387200;19;20233;-75
2023/08/21 10:28:25;;;;;;;5.88;3.60;;;30.70;99.90;;;;;;7388774;19;20130;-75
2023/08/21 10:30:51;;;;;;;5.25;3.40;;;30.70;99.90;;;;;;7388868;19;20197;-75
2023/08/21 10:33:37;;;;;;;4.20;3.80;;;30.80;99.90;;;;;;7390582;19;20131;-75
2023/08/21 10:36:04;;;;;;;6.07;4.15;;;30.90;99.90;;;;;;7390318;19;20148;-76
2023/08/21 10:38:30;;;;;;;6.45;3.58;;;31.00;99.90;;;;;;7388860;19;20193;-75
2023/08/21 10:41:08;;;;;;;3.72;3.42;;;31.00;99.90;;;;;;7387237;19;20501;-75
2023/08/21 10:43:40;;;;;;;4.97;3.85;;;31.10;99.90;;;;;;7389498;19;20141;-75
2023/08/21 10:46:08;;;;;;;5.18;3.70;;;31.20;99.90;;;;;;7390375;19;20251;-75
2023/08/21 10:48:35;;;;;;;4.95;4.25;;;31.30;99.90;;;;;;7388540;19;20147;-73
2023/08/21 10:51:06;;;;;;;3.97;3.60;;;31.30;99.90;;;;;;7389045;19;20613;-74
2023/08/21 10:53:33;;;;;;;6.65;4.30;;;31.20;99.90;;;;;;7388772;19;20156;-75
2023/08/21 10:56:05;;;;;;;4.22;3.83;;;31.00;99.90;;;;;;7388104;19;20134;-76
2023/08/21 10:58:38;;;;;;;4.05;3.58;;;31.00;99.90;;;;;;7387254;19;20698;-74
2023/08/21 11:01:04;;;;;;;6.90;3.35;;;31.10;99.90;;;;;;7389098;19;20135;-74
2023/08/21 11:03:30;;;;;;;3.53;3.20;;;31.30;99.90;;;;;;7386148;19;20154;-74
2023/08/21 11:06:07;;;;;;;4.43;3.60;;;31.30;99.90;;;;;;7387970;19;20159;-74
2023/08/21 11:08:34;;;;;;;3.50;3.20;;;31.40;99.90;;;;;;7386598;19;20506;-73
2023/08/21 11:11:01;;;;;;;5.15;3.65;;;31.60;99.90;;;;;;7387253;19;20139;-75
2023/08/21 11:13:27;;;;;;;4.03;3.58;;;31.80;99.90;;;;;;7389361;19;20159;-75
2023/08/21 11:16:04;;;;;;;4.85;4.18;;;31.70;99.90;;;;;;7386131;19;20139;-76
2023/08/21 11:18:39;;;;;;;7.20;3.47;;;31.60;99.90;;;;;;7388469;19;20138;-77
2023/08/21 11:21:09;;;;;;;4.55;4.03;;;31.70;99.90;;;;;;7384787;19;20145;-75
2023/08/21 11:23:37;;;;;;;4.00;3.60;;;31.70;99.90;;;;;;7387008;19;20135;-76
2023/08/21 11:26:04;;;;;;;5.35;4.28;;;31.70;99.90;;;;;;7386947;19;20492;-76
2023/08/21 11:28:31;;;;;;;5.63;3.65;;;31.70;99.90;;;;;;7385605;19;20218;-74
2023/08/21 11:30:57;;;;;;;6.63;3.80;;;31.80;99.90;;;;;;7385885;19;20127;-75
2023/08/21 11:33:23;;;;;;;6.63;5.38;;;31.80;99.90;;;;;;7387546;19;20210;-74
2023/08/21 11:35:51;;;;;;;6.13;4.65;;;31.80;99.90;;;;;;7386069;19;20584;-75
2023/08/21 11:38:22;;;;;;;5.85;4.18;;;31.80;99.90;;;;;;7386801;19;20171;-75
2023/08/21 11:40:58;;;;;;;6.93;3.97;;;31.80;99.90;;;;;;7384193;19;20154;-76
2023/08/21 11:43:57;;;;;;;5.55;4.63;;;31.70;99.90;;;;;;7386299;19;20135;-75
2023/08/21 11:46:22;;;;;;;5.40;3.90;;;31.70;99.90;;;;;;7384224;19;20545;-75
2023/08/21 11:48:50;;;;;;;5.07;3.80;;;31.80;99.90;;;;;;7386093;19;20142;-75
2023/08/21 11:51:15;;;;;;;6.50;4.18;;;31.80;99.90;;;;;;7385513;19;20142;-75
2023/08/21 11:53:42;;;;;;;4.72;3.78;;;31.70;99.90;;;;;;7385749;19;20151;-76
2023/08/21 11:56:16;;;;;;;3.78;3.33;;;31.80;99.90;;;;;;7385990;19;20130;-76
2023/08/21 11:58:46;;;;;;;7.07;4.45;;;32.00;99.90;;;;;;7386034;19;20466;-76
2023/08/21 12:01:19;;;;;;;3.90;3.50;;;32.10;99.90;;;;;;7387180;19;20469;-75
2023/08/21 12:03:45;;;;;;;6.35;4.25;;;32.20;99.90;;;;;;7389007;19;20218;-76
2023/08/21 12:06:12;;;;;;;4.95;4.20;;;32.30;99.90;;;;;;7391196;19;20127;-76
2023/08/21 12:08:39;;;;;;;4.72;3.53;;;32.40;99.90;;;;;;7394297;19;20130;-76
2023/08/21 12:11:05;;;;;;;4.32;3.92;;;32.50;99.90;;;;;;7392201;19;20190;-76
2023/08/21 12:13:31;;;;;;;6.55;4.50;;;32.60;99.90;;;;;;7392710;19;20138;-76
2023/08/21 12:15:57;;;;;;;7.15;4.03;;;32.60;99.90;;;;;;7391959;19;20225;-77
2023/08/21 12:18:23;;;;;;;4.93;4.28;;;32.30;99.90;;;;;;7393251;19;20646;-75
2023/08/21 12:20:49;;;;;;;4.78;3.97;;;32.20;99.90;;;;;;7393266;19;20142;-76
2023/08/21 12:23:15;;;;;;;4.15;3.47;;;32.20;99.90;;;;;;7392109;19;20130;-75
2023/08/21 12:25:41;;;;;;;6.90;3.63;;;32.20;99.90;;;;;;7391662;19;20179;-76
2023/08/21 12:28:08;;;;;;;5.35;3.55;;;32.20;99.90;;;;;;7393529;19;20206;-75
2023/08/21 12:30:34;;;;;;;5.07;3.88;;;32.20;99.90;;;;;;7392405;19;20145;-77
2023/08/21 12:33:00;;;;;;;4.07;3.53;;;32.30;99.90;;;;;;7393648;19;20143;-75
2023/08/21 12:35:26;;;;;;;6.15;3.88;;;32.40;99.90;;;;;;7393547;19;20134;-76
2023/08/21 12:37:58;;;;;;;6.85;4.32;;;32.60;99.90;;;;;;7392466;19;20130;-75
2023/08/21 12:40:24;;;;;;;5.28;3.80;;;32.60;99.90;;;;;;7387638;19;20138;-77
2023/08/21 12:42:50;;;;;;;4.40;3.80;;;32.40;99.90;;;;;;7392818;19;20155;-77
2023/08/21 12:45:16;;;;;;;5.10;3.72;;;32.40;99.90;;;;;;7390805;19;20150;-76